sensor_id;sensor_type;location;lat;lon;timestamp;temperature;humidity
16655;DHT22;8441;51.344;7.022;2023-03-01T00:01:01;-2.40;99.90
16655;DHT22;8441;51.344;7.022;2023-03-01T00:03:28;-2.40;99.90
16655;DHT22;8441;51.344;7.022;2023-03-01T00:05:56;-2.40;99.90
16655;DHT22;8441;51.344;7.022;2023-03-01T00:08:26;-2.50;99.90
16655;DHT22;8441;51.344;7.022;2023-03-01T00:11:00;-2.60;99.90
16655;DHT22;8441;51.344;7.022;2023-03-01T00:13:28;-2.60;99.90
16655;DHT22;8441;51.344;7.022;2023-03-01T00:15:55;-2.40;99.90
16655;DHT22;8441;51.344;7.022;2023-03-01T00:18:23;-2.40;99.90
16655;DHT22;8441;51.344;7.022;2023-03-01T00:20:51;-2.40;99.90
16655;DHT22;8441;51.344;7.022;2023-03-01T00:23:18;-2.40;99.90
16655;DHT22;8441;51.344;7.022;2023-03-01T00:25:47;-2.40;99.90
16655;DHT22;8441;51.344;7.022;2023-03-01T00:28:14;-2.40;99.90
16655;DHT22;8441;51.344;7.022;2023-03-01T00:30:42;-2.50;99.90
16655;DHT22;8441;51.344;7.022;2023-03-01T00:33:09;-2.40;99.90
16655;DHT22;8441;51.344;7.022;2023-03-01T00:35:36;-2.50;99.90
16655;DHT22;8441;51.344;7.022;2023-03-01T00:38:04;-2.50;99.90
16655;DHT22;8441;51.344;7.022;2023-03-01T00:40:33;-2.50;99.90
16655;DHT22;8441;51.344;7.022;2023-03-01T00:43:03;-2.60;99.90
16655;DHT22;8441;51.344;7.022;2023-03-01T00:45:30;-2.60;99.90
16655;DHT22;8441;51.344;7.022;2023-03-01T00:47:57;-2.60;99.90
16655;DHT22;8441;51.344;7.022;2023-03-01T00:50:25;-2.50;99.90
16655;DHT22;8441;51.344;7.022;2023-03-01T00:52:53;-2.50;99.90
16655;DHT22;8441;51.344;7.022;2023-03-01T00:55:20;-2.50;99.90
16655;DHT22;8441;51.344;7.022;2023-03-01T00:57:48;-2.60;99.90
16655;DHT22;8441;51.344;7.022;2023-03-01T01:00:17;-2.60;99.90
16655;DHT22;8441;51.344;7.022;2023-03-01T01:02:44;-2.60;99.90
16655;DHT22;8441;51.344;7.022;2023-03-01T01:05:12;-2.60;99.90
16655;DHT22;8441;51.344;7.022;2023-03-01T01:07:39;-2.70;99.90
16655;DHT22;8441;51.344;7.022;2023-03-01T01:10:07;-2.80;99.90
16655;DHT22;8441;51.344;7.022;2023-03-01T01:12:38;-2.90;99.90
16655;DHT22;8441;51.344;7.022;2023-03-01T01:15:06;-3.00;99.90
16655;DHT22;8441;51.344;7.022;2023-03-01T01:17:35;-3.10;99.90
16655;DHT22;8441;51.344;7.022;2023-03-01T01:20:02;-3.20;99.90
16655;DHT22;8441;51.344;7.022;2023-03-01T01:22:30;-3.30;99.90
16655;DHT22;8441;51.344;7.022;2023-03-01T01:24:57;-3.30;99.90
16655;DHT22;8441;51.344;7.022;2023-03-01T01:27:24;-3.30;99.90
16655;DHT22;8441;51.344;7.022;2023-03-01T01:29:53;-3.30;99.90
16655;DHT22;8441;51.344;7.022;2023-03-01T01:32:20;-3.50;99.90
16655;DHT22;8441;51.344;7.022;2023-03-01T01:34:48;-3.50;99.90
16655;DHT22;8441;51.344;7.022;2023-03-01T01:37:15;-3.60;99.90
16655;DHT22;8441;51.344;7.022;2023-03-01T01:39:43;-3.70;99.90
16655;DHT22;8441;51.344;7.022;2023-03-01T01:42:14;-3.70;99.90
16655;DHT22;8441;51.344;7.022;2023-03-01T01:44:44;-3.60;99.90
16655;DHT22;8441;51.344;7.022;2023-03-01T01:47:15;-3.60;99.90
16655;DHT22;8441;51.344;7.022;2023-03-01T01:49:46;-3.70;99.90
16655;DHT22;8441;51.344;7.022;2023-03-01T01:52:20;-3.70;99.90
16655;DHT22;8441;51.344;7.022;2023-03-01T01:54:51;-3.70;99.90
16655;DHT22;8441;51.344;7.022;2023-03-01T01:57:22;-3.70;99.90
16655;DHT22;8441;51.344;7.022;2023-03-01T01:59:53;-3.80;99.90
16655;DHT22;8441;51.344;7.022;2023-03-01T02:02:21;-3.80;99.90
16655;DHT22;8441;51.344;7.022;2023-03-01T02:04:50;-3.60;99.90
16655;DHT22;8441;51.344;7.022;2023-03-01T02:07:22;-3.50;99.90
16655;DHT22;8441;51.344;7.022;2023-03-01T02:09:52;-3.60;99.90
16655;DHT22;8441;51.344;7.022;2023-03-01T02:12:22;-3.60;99.90
16655;DHT22;8441;51.344;7.022;2023-03-01T02:14:50;-3.60;99.90
16655;DHT22;8441;51.344;7.022;2023-03-01T02:17:18;-3.50;99.90
16655;DHT22;8441;51.344;7.022;2023-03-01T02:19:54;-3.40;99.90
16655;DHT22;8441;51.344;7.022;2023-03-01T02:22:27;-3.50;99.90
16655;DHT22;8441;51.344;7.022;2023-03-01T02:25:07;-3.50;99.90
16655;DHT22;8441;51.344;7.022;2023-03-01T02:27:42;-3.60;99.90
16655;DHT22;8441;51.344;7.022;2023-03-01T02:30:13;-3.60;99.90
16655;DHT22;8441;51.344;7.022;2023-03-01T02:32:41;-3.60;99.90
16655;DHT22;8441;51.344;7.022;2023-03-01T02:35:09;-3.60;99.90
16655;DHT22;8441;51.344;7.022;2023-03-01T02:37:37;-3.70;99.90
16655;DHT22;8441;51.344;7.022;2023-03-01T02:40:08;-3.70;99.90
16655;DHT22;8441;51.344;7.022;2023-03-01T02:42:43;-3.70;99.90
16655;DHT22;8441;51.344;7.022;2023-03-01T02:45:14;-3.70;99.90
16655;DHT22;8441;51.344;7.022;2023-03-01T02:47:41;-3.80;99.90
16655;DHT22;8441;51.344;7.022;2023-03-01T02:50:22;-3.70;99.90
16655;DHT22;8441;51.344;7.022;2023-03-01T02:52:56;-3.70;99.90
16655;DHT22;8441;51.344;7.022;2023-03-01T02:55:25;-3.80;99.90
16655;DHT22;8441;51.344;7.022;2023-03-01T02:57:53;-3.90;99.90
16655;DHT22;8441;51.344;7.022;2023-03-01T03:00:26;-3.90;99.90
16655;DHT22;8441;51.344;7.022;2023-03-01T03:02:55;-3.90;99.90
16655;DHT22;8441;51.344;7.022;2023-03-01T03:05:25;-3.90;99.90
16655;DHT22;8441;51.344;7.022;2023-03-01T03:07:54;-3.90;99.90
16655;DHT22;8441;51.344;7.022;2023-03-01T03:10:23;-3.90;99.90
16655;DHT22;8441;51.344;7.022;2023-03-01T03:12:51;-4.00;99.90
16655;DHT22;8441;51.344;7.022;2023-03-01T03:15:19;-4.00;99.90
16655;DHT22;8441;51.344;7.022;2023-03-01T03:17:48;-4.00;99.90
16655;DHT22;8441;51.344;7.022;2023-03-01T03:20:18;-4.00;99.90
16655;DHT22;8441;51.344;7.022;2023-03-01T03:22:46;-4.00;99.90
16655;DHT22;8441;51.344;7.022;2023-03-01T03:25:14;-4.10;99.90
16655;DHT22;8441;51.344;7.022;2023-03-01T03:27:42;-4.10;99.90
16655;DHT22;8441;51.344;7.022;2023-03-01T03:30:12;-4.20;99.90
16655;DHT22;8441;51.344;7.022;2023-03-01T03:32:40;-4.00;99.90
16655;DHT22;8441;51.344;7.022;2023-03-01T03:35:09;-4.00;99.90
16655;DHT22;8441;51.344;7.022;2023-03-01T03:37:37;-4.00;99.90
16655;DHT22;8441;51.344;7.022;2023-03-01T03:40:22;-3.90;99.90
16655;DHT22;8441;51.344;7.022;2023-03-01T03:42:49;-3.80;99.90
16655;DHT22;8441;51.344;7.022;2023-03-01T03:45:17;-3.80;99.90
16655;DHT22;8441;51.344;7.022;2023-03-01T03:47:44;-3.70;99.90
16655;DHT22;8441;51.344;7.022;2023-03-01T03:50:15;-3.70;99.90
16655;DHT22;8441;51.344;7.022;2023-03-01T03:52:43;-3.80;99.90
16655;DHT22;8441;51.344;7.022;2023-03-01T03:55:12;-3.80;99.90
16655;DHT22;8441;51.344;7.022;2023-03-01T03:57:40;-3.90;99.90
16655;DHT22;8441;51.344;7.022;2023-03-01T04:00:10;-3.90;99.90
16655;DHT22;8441;51.344;7.022;2023-03-01T04:02:39;-3.90;99.90
16655;DHT22;8441;51.344;7.022;2023-03-01T04:05:07;-4.00;99.90
16655;DHT22;8441;51.344;7.022;2023-03-01T04:07:36;-4.10;99.90
16655;DHT22;8441;51.344;7.022;2023-03-01T04:10:04;-4.20;99.90
16655;DHT22;8441;51.344;7.022;2023-03-01T04:12:32;-4.20;99.90
16655;DHT22;8441;51.344;7.022;2023-03-01T04:14:59;-4.30;99.90
16655;DHT22;8441;51.344;7.022;2023-03-01T04:17:27;-4.20;99.90
16655;DHT22;8441;51.344;7.022;2023-03-01T04:19:54;-4.30;99.90
16655;DHT22;8441;51.344;7.022;2023-03-01T04:22:21;-4.30;99.90
16655;DHT22;8441;51.344;7.022;2023-03-01T04:24:50;-4.30;99.90
16655;DHT22;8441;51.344;7.022;2023-03-01T04:27:17;-4.30;99.90
16655;DHT22;8441;51.344;7.022;2023-03-01T04:29:44;-4.30;99.90
16655;DHT22;8441;51.344;7.022;2023-03-01T04:32:11;-4.20;99.90
16655;DHT22;8441;51.344;7.022;2023-03-01T04:34:41;-4.10;99.90
16655;DHT22;8441;51.344;7.022;2023-03-01T04:37:08;-4.00;99.90
16655;DHT22;8441;51.344;7.022;2023-03-01T04:39:36;-4.10;99.90
16655;DHT22;8441;51.344;7.022;2023-03-01T04:42:12;-4.20;99.90
16655;DHT22;8441;51.344;7.022;2023-03-01T04:44:39;-4.20;99.90
16655;DHT22;8441;51.344;7.022;2023-03-01T04:47:06;-4.20;99.90
16655;DHT22;8441;51.344;7.022;2023-03-01T04:49:34;-4.30;99.90
16655;DHT22;8441;51.344;7.022;2023-03-01T04:52:01;-4.30;99.90
16655;DHT22;8441;51.344;7.022;2023-03-01T04:54:28;-4.40;99.90
16655;DHT22;8441;51.344;7.022;2023-03-01T04:56:56;-4.30;99.90
16655;DHT22;8441;51.344;7.022;2023-03-01T04:59:25;-4.30;99.90
16655;DHT22;8441;51.344;7.022;2023-03-01T05:01:53;-4.30;99.90
16655;DHT22;8441;51.344;7.022;2023-03-01T05:04:21;-4.30;99.90
16655;DHT22;8441;51.344;7.022;2023-03-01T05:06:48;-4.30;99.90
16655;DHT22;8441;51.344;7.022;2023-03-01T05:09:16;-4.30;99.90
16655;DHT22;8441;51.344;7.022;2023-03-01T05:11:43;-4.30;99.90
16655;DHT22;8441;51.344;7.022;2023-03-01T05:14:11;-4.20;99.90
16655;DHT22;8441;51.344;7.022;2023-03-01T05:16:39;-4.20;99.90
16655;DHT22;8441;51.344;7.022;2023-03-01T05:19:07;-4.20;99.90
16655;DHT22;8441;51.344;7.022;2023-03-01T05:21:41;-4.20;99.90
16655;DHT22;8441;51.344;7.022;2023-03-01T05:24:21;-4.20;99.90
16655;DHT22;8441;51.344;7.022;2023-03-01T05:26:49;-4.20;99.90
16655;DHT22;8441;51.344;7.022;2023-03-01T05:29:17;-4.30;99.90
16655;DHT22;8441;51.344;7.022;2023-03-01T05:31:52;-4.30;99.90
16655;DHT22;8441;51.344;7.022;2023-03-01T05:34:23;-4.40;99.90
16655;DHT22;8441;51.344;7.022;2023-03-01T05:36:51;-4.40;99.90
16655;DHT22;8441;51.344;7.022;2023-03-01T05:39:19;-4.40;99.90
16655;DHT22;8441;51.344;7.022;2023-03-01T05:41:48;-4.50;99.90
16655;DHT22;8441;51.344;7.022;2023-03-01T05:44:15;-4.50;99.90
16655;DHT22;8441;51.344;7.022;2023-03-01T05:46:42;-4.60;99.90
16655;DHT22;8441;51.344;7.022;2023-03-01T05:49:12;-4.70;99.90
16655;DHT22;8441;51.344;7.022;2023-03-01T05:51:39;-4.70;99.90
16655;DHT22;8441;51.344;7.022;2023-03-01T05:54:07;-4.70;99.90
16655;DHT22;8441;51.344;7.022;2023-03-01T05:56:34;-4.70;99.90
16655;DHT22;8441;51.344;7.022;2023-03-01T05:59:02;-4.70;99.90
16655;DHT22;8441;51.344;7.022;2023-03-01T06:01:30;-4.80;99.90
16655;DHT22;8441;51.344;7.022;2023-03-01T06:03:57;-4.70;99.90
16655;DHT22;8441;51.344;7.022;2023-03-01T06:06:26;-4.80;99.90
16655;DHT22;8441;51.344;7.022;2023-03-01T06:08:53;-4.80;99.90
16655;DHT22;8441;51.344;7.022;2023-03-01T06:11:21;-4.80;99.90
16655;DHT22;8441;51.344;7.022;2023-03-01T06:13:49;-4.80;99.90
16655;DHT22;8441;51.344;7.022;2023-03-01T06:16:16;-4.80;99.90
16655;DHT22;8441;51.344;7.022;2023-03-01T06:18:43;-4.70;99.90
16655;DHT22;8441;51.344;7.022;2023-03-01T06:21:10;-4.70;99.90
16655;DHT22;8441;51.344;7.022;2023-03-01T06:23:39;-4.60;99.90
16655;DHT22;8441;51.344;7.022;2023-03-01T06:26:07;-4.50;99.90
16655;DHT22;8441;51.344;7.022;2023-03-01T06:28:35;-4.50;99.90
16655;DHT22;8441;51.344;7.022;2023-03-01T06:31:02;-4.40;99.90
16655;DHT22;8441;51.344;7.022;2023-03-01T06:33:29;-4.50;99.90
16655;DHT22;8441;51.344;7.022;2023-03-01T06:35:56;-4.50;99.90
16655;DHT22;8441;51.344;7.022;2023-03-01T06:38:24;-4.50;99.90
16655;DHT22;8441;51.344;7.022;2023-03-01T06:40:55;-4.60;99.90
16655;DHT22;8441;51.344;7.022;2023-03-01T06:43:23;-4.50;99.90
16655;DHT22;8441;51.344;7.022;2023-03-01T06:45:50;-4.50;99.90
16655;DHT22;8441;51.344;7.022;2023-03-01T06:48:17;-4.40;99.90
16655;DHT22;8441;51.344;7.022;2023-03-01T06:50:45;-4.30;99.90
16655;DHT22;8441;51.344;7.022;2023-03-01T06:53:12;-4.20;99.90
16655;DHT22;8441;51.344;7.022;2023-03-01T06:55:39;-4.10;99.90
16655;DHT22;8441;51.344;7.022;2023-03-01T06:58:09;-4.00;99.90
16655;DHT22;8441;51.344;7.022;2023-03-01T07:00:36;-3.90;99.90
16655;DHT22;8441;51.344;7.022;2023-03-01T07:03:06;-3.90;99.90
16655;DHT22;8441;51.344;7.022;2023-03-01T07:05:33;-3.80;99.90
16655;DHT22;8441;51.344;7.022;2023-03-01T07:08:01;-3.60;99.90
16655;DHT22;8441;51.344;7.022;2023-03-01T07:10:28;-3.50;99.90
16655;DHT22;8441;51.344;7.022;2023-03-01T07:12:56;-3.40;99.90
16655;DHT22;8441;51.344;7.022;2023-03-01T07:15:25;-3.30;99.90
16655;DHT22;8441;51.344;7.022;2023-03-01T07:17:52;-3.20;99.90
16655;DHT22;8441;51.344;7.022;2023-03-01T07:20:20;-3.00;99.90
16655;DHT22;8441;51.344;7.022;2023-03-01T07:22:50;-3.00;99.90
16655;DHT22;8441;51.344;7.022;2023-03-01T07:25:17;-3.00;99.90
16655;DHT22;8441;51.344;7.022;2023-03-01T07:27:49;-2.80;99.90
16655;DHT22;8441;51.344;7.022;2023-03-01T07:30:17;-2.80;99.90
16655;DHT22;8441;51.344;7.022;2023-03-01T07:32:45;-2.70;99.90
16655;DHT22;8441;51.344;7.022;2023-03-01T07:35:13;-2.50;99.90
16655;DHT22;8441;51.344;7.022;2023-03-01T07:37:40;-2.50;99.90
16655;DHT22;8441;51.344;7.022;2023-03-01T07:40:09;-2.40;99.90
16655;DHT22;8441;51.344;7.022;2023-03-01T07:42:36;-2.40;99.90
16655;DHT22;8441;51.344;7.022;2023-03-01T07:45:04;-2.30;99.90
16655;DHT22;8441;51.344;7.022;2023-03-01T07:47:31;-2.20;99.90
16655;DHT22;8441;51.344;7.022;2023-03-01T07:50:00;-2.20;99.90
16655;DHT22;8441;51.344;7.022;2023-03-01T07:52:28;-2.10;99.90
16655;DHT22;8441;51.344;7.022;2023-03-01T07:54:56;-2.10;99.90
16655;DHT22;8441;51.344;7.022;2023-03-01T07:57:23;-2.00;99.90
16655;DHT22;8441;51.344;7.022;2023-03-01T07:59:51;-2.00;99.90
16655;DHT22;8441;51.344;7.022;2023-03-01T08:02:18;-1.90;99.90
16655;DHT22;8441;51.344;7.022;2023-03-01T08:04:45;-1.90;99.90
16655;DHT22;8441;51.344;7.022;2023-03-01T08:07:13;-1.90;99.90
16655;DHT22;8441;51.344;7.022;2023-03-01T08:09:41;-1.90;99.90
16655;DHT22;8441;51.344;7.022;2023-03-01T08:12:08;-1.70;99.90
16655;DHT22;8441;51.344;7.022;2023-03-01T08:14:35;-1.60;99.90
16655;DHT22;8441;51.344;7.022;2023-03-01T08:17:02;-1.50;99.90
16655;DHT22;8441;51.344;7.022;2023-03-01T08:19:30;-1.40;99.90
16655;DHT22;8441;51.344;7.022;2023-03-01T08:21:58;-1.30;99.90
16655;DHT22;8441;51.344;7.022;2023-03-01T08:24:27;-1.30;99.90
16655;DHT22;8441;51.344;7.022;2023-03-01T08:26:54;-1.20;99.90
16655;DHT22;8441;51.344;7.022;2023-03-01T08:29:22;-1.20;99.90
16655;DHT22;8441;51.344;7.022;2023-03-01T08:31:50;-1.10;99.90
16655;DHT22;8441;51.344;7.022;2023-03-01T08:34:18;-1.00;99.90
16655;DHT22;8441;51.344;7.022;2023-03-01T08:36:46;-1.00;99.90
16655;DHT22;8441;51.344;7.022;2023-03-01T08:39:14;-1.00;99.90
16655;DHT22;8441;51.344;7.022;2023-03-01T08:41:43;-1.00;99.90
16655;DHT22;8441;51.344;7.022;2023-03-01T08:44:12;-0.80;99.90
16655;DHT22;8441;51.344;7.022;2023-03-01T08:46:42;-0.80;99.90
16655;DHT22;8441;51.344;7.022;2023-03-01T08:49:12;-0.70;99.90
16655;DHT22;8441;51.344;7.022;2023-03-01T08:51:40;-0.60;99.90
16655;DHT22;8441;51.344;7.022;2023-03-01T08:54:11;-0.50;99.90
16655;DHT22;8441;51.344;7.022;2023-03-01T08:56:39;-0.40;99.90
16655;DHT22;8441;51.344;7.022;2023-03-01T08:59:08;-0.30;99.90
16655;DHT22;8441;51.344;7.022;2023-03-01T09:01:36;-0.30;99.90
16655;DHT22;8441;51.344;7.022;2023-03-01T09:04:03;-0.30;99.90
16655;DHT22;8441;51.344;7.022;2023-03-01T09:06:31;-0.20;99.90
16655;DHT22;8441;51.344;7.022;2023-03-01T09:08:59;-0.20;99.90
16655;DHT22;8441;51.344;7.022;2023-03-01T09:11:28;-0.10;99.90
16655;DHT22;8441;51.344;7.022;2023-03-01T09:13:55;-0.10;99.90
16655;DHT22;8441;51.344;7.022;2023-03-01T09:16:24;0.10;99.90
16655;DHT22;8441;51.344;7.022;2023-03-01T09:18:52;0.10;99.90
16655;DHT22;8441;51.344;7.022;2023-03-01T09:21:21;0.20;99.90
16655;DHT22;8441;51.344;7.022;2023-03-01T09:23:48;0.20;99.90
16655;DHT22;8441;51.344;7.022;2023-03-01T09:26:17;0.40;99.90
16655;DHT22;8441;51.344;7.022;2023-03-01T09:28:45;0.40;99.90
16655;DHT22;8441;51.344;7.022;2023-03-01T09:31:13;0.50;99.90
16655;DHT22;8441;51.344;7.022;2023-03-01T09:33:42;0.50;99.90
16655;DHT22;8441;51.344;7.022;2023-03-01T09:36:13;0.60;99.90
16655;DHT22;8441;51.344;7.022;2023-03-01T09:38:41;0.60;99.90
16655;DHT22;8441;51.344;7.022;2023-03-01T09:41:24;0.70;99.90
16655;DHT22;8441;51.344;7.022;2023-03-01T09:43:57;0.70;99.90
16655;DHT22;8441;51.344;7.022;2023-03-01T09:46:27;0.70;99.90
16655;DHT22;8441;51.344;7.022;2023-03-01T09:48:58;0.80;99.90
16655;DHT22;8441;51.344;7.022;2023-03-01T09:51:31;0.90;99.90
16655;DHT22;8441;51.344;7.022;2023-03-01T09:54:00;1.10;99.90
16655;DHT22;8441;51.344;7.022;2023-03-01T09:56:32;1.10;99.90
16655;DHT22;8441;51.344;7.022;2023-03-01T09:59:11;1.20;99.90
16655;DHT22;8441;51.344;7.022;2023-03-01T10:01:48;1.20;99.90
16655;DHT22;8441;51.344;7.022;2023-03-01T10:04:39;1.40;99.90
16655;DHT22;8441;51.344;7.022;2023-03-01T10:07:20;1.50;99.90
16655;DHT22;8441;51.344;7.022;2023-03-01T10:09:48;1.60;99.90
16655;DHT22;8441;51.344;7.022;2023-03-01T10:12:18;1.70;99.90
16655;DHT22;8441;51.344;7.022;2023-03-01T10:14:54;1.70;99.90
16655;DHT22;8441;51.344;7.022;2023-03-01T10:17:27;1.70;99.90
16655;DHT22;8441;51.344;7.022;2023-03-01T10:20:14;1.80;99.90
16655;DHT22;8441;51.344;7.022;2023-03-01T10:22:42;1.90;99.90
16655;DHT22;8441;51.344;7.022;2023-03-01T10:25:13;1.90;99.90
16655;DHT22;8441;51.344;7.022;2023-03-01T10:27:46;2.00;99.90
16655;DHT22;8441;51.344;7.022;2023-03-01T10:30:20;2.00;99.90
16655;DHT22;8441;51.344;7.022;2023-03-01T10:32:49;2.20;99.90
16655;DHT22;8441;51.344;7.022;2023-03-01T10:35:22;2.20;99.90
16655;DHT22;8441;51.344;7.022;2023-03-01T10:38:03;2.30;99.90
16655;DHT22;8441;51.344;7.022;2023-03-01T10:40:31;2.50;99.90
16655;DHT22;8441;51.344;7.022;2023-03-01T10:43:00;2.50;99.90
16655;DHT22;8441;51.344;7.022;2023-03-01T10:45:34;2.60;99.90
16655;DHT22;8441;51.344;7.022;2023-03-01T10:48:13;2.70;99.90
16655;DHT22;8441;51.344;7.022;2023-03-01T10:50:43;2.70;99.90
16655;DHT22;8441;51.344;7.022;2023-03-01T10:53:24;2.70;99.90
16655;DHT22;8441;51.344;7.022;2023-03-01T10:56:00;2.80;99.90
16655;DHT22;8441;51.344;7.022;2023-03-01T10:58:28;2.90;99.90
16655;DHT22;8441;51.344;7.022;2023-03-01T11:00:57;3.00;99.90
16655;DHT22;8441;51.344;7.022;2023-03-01T11:03:27;3.10;99.90
16655;DHT22;8441;51.344;7.022;2023-03-01T11:06:02;3.10;99.90
16655;DHT22;8441;51.344;7.022;2023-03-01T11:08:33;3.20;99.90
16655;DHT22;8441;51.344;7.022;2023-03-01T11:11:22;3.10;99.90
16655;DHT22;8441;51.344;7.022;2023-03-01T11:13:55;3.20;99.90
16655;DHT22;8441;51.344;7.022;2023-03-01T11:16:26;3.20;99.90
16655;DHT22;8441;51.344;7.022;2023-03-01T11:18:59;3.20;99.90
16655;DHT22;8441;51.344;7.022;2023-03-01T11:21:29;3.30;99.90
16655;DHT22;8441;51.344;7.022;2023-03-01T11:24:00;3.40;99.90
16655;DHT22;8441;51.344;7.022;2023-03-01T11:26:28;3.50;99.90
16655;DHT22;8441;51.344;7.022;2023-03-01T11:29:00;3.60;99.90
16655;DHT22;8441;51.344;7.022;2023-03-01T11:31:31;3.50;99.90
16655;DHT22;8441;51.344;7.022;2023-03-01T11:34:05;3.40;99.90
16655;DHT22;8441;51.344;7.022;2023-03-01T11:36:41;3.40;99.90
16655;DHT22;8441;51.344;7.022;2023-03-01T11:39:20;3.60;99.90
16655;DHT22;8441;51.344;7.022;2023-03-01T11:42:00;3.60;99.90
16655;DHT22;8441;51.344;7.022;2023-03-01T11:44:31;3.60;99.90
16655;DHT22;8441;51.344;7.022;2023-03-01T11:47:13;3.60;99.90
16655;DHT22;8441;51.344;7.022;2023-03-01T11:49:57;3.70;99.90
16655;DHT22;8441;51.344;7.022;2023-03-01T11:52:37;3.80;99.90
16655;DHT22;8441;51.344;7.022;2023-03-01T11:55:20;3.80;99.90
16655;DHT22;8441;51.344;7.022;2023-03-01T11:58:04;3.80;99.90
16655;DHT22;8441;51.344;7.022;2023-03-01T12:00:44;3.80;99.90
16655;DHT22;8441;51.344;7.022;2023-03-01T12:03:30;3.70;99.90
16655;DHT22;8441;51.344;7.022;2023-03-01T12:06:21;3.80;99.90
16655;DHT22;8441;51.344;7.022;2023-03-01T12:08:59;3.80;99.90
16655;DHT22;8441;51.344;7.022;2023-03-01T12:11:40;3.80;99.90
16655;DHT22;8441;51.344;7.022;2023-03-01T12:14:40;3.90;99.90
16655;DHT22;8441;51.344;7.022;2023-03-01T12:17:22;4.00;99.90
16655;DHT22;8441;51.344;7.022;2023-03-01T12:20:12;4.00;99.90
16655;DHT22;8441;51.344;7.022;2023-03-01T12:22:54;3.90;99.90
16655;DHT22;8441;51.344;7.022;2023-03-01T12:25:33;4.00;99.90
16655;DHT22;8441;51.344;7.022;2023-03-01T12:31:34;4.20;99.90
16655;DHT22;8441;51.344;7.022;2023-03-01T12:34:16;4.30;99.90
16655;DHT22;8441;51.344;7.022;2023-03-01T12:36:59;4.20;99.90
16655;DHT22;8441;51.344;7.022;2023-03-01T12:39:41;4.20;99.90
16655;DHT22;8441;51.344;7.022;2023-03-01T12:42:21;4.20;99.90
16655;DHT22;8441;51.344;7.022;2023-03-01T12:45:19;4.40;99.90
16655;DHT22;8441;51.344;7.022;2023-03-01T12:48:09;4.50;99.90
16655;DHT22;8441;51.344;7.022;2023-03-01T12:50:43;4.50;99.90
16655;DHT22;8441;51.344;7.022;2023-03-01T12:53:22;4.40;99.90
16655;DHT22;8441;51.344;7.022;2023-03-01T12:55:51;4.40;99.90
16655;DHT22;8441;51.344;7.022;2023-03-01T12:58:26;4.40;99.90
16655;DHT22;8441;51.344;7.022;2023-03-01T13:01:05;4.60;99.90
16655;DHT22;8441;51.344;7.022;2023-03-01T13:04:01;4.70;99.90
16655;DHT22;8441;51.344;7.022;2023-03-01T13:06:35;4.70;99.90
16655;DHT22;8441;51.344;7.022;2023-03-01T13:09:14;4.60;99.90
16655;DHT22;8441;51.344;7.022;2023-03-01T13:11:45;4.80;99.90
16655;DHT22;8441;51.344;7.022;2023-03-01T13:14:39;4.90;99.90
16655;DHT22;8441;51.344;7.022;2023-03-01T13:17:30;4.90;99.90
16655;DHT22;8441;51.344;7.022;2023-03-01T13:19:58;4.90;99.90
16655;DHT22;8441;51.344;7.022;2023-03-01T13:22:28;4.80;99.90
16655;DHT22;8441;51.344;7.022;2023-03-01T13:25:13;4.90;99.90
16655;DHT22;8441;51.344;7.022;2023-03-01T13:27:41;4.80;99.90
16655;DHT22;8441;51.344;7.022;2023-03-01T13:30:41;4.90;99.90
16655;DHT22;8441;51.344;7.022;2023-03-01T13:33:42;5.00;99.90
16655;DHT22;8441;51.344;7.022;2023-03-01T13:36:11;4.90;99.90
16655;DHT22;8441;51.344;7.022;2023-03-01T13:38:55;4.90;99.90
16655;DHT22;8441;51.344;7.022;2023-03-01T13:41:48;4.80;99.90
16655;DHT22;8441;51.344;7.022;2023-03-01T13:44:22;4.90;99.90
16655;DHT22;8441;51.344;7.022;2023-03-01T13:46:55;4.90;99.90
16655;DHT22;8441;51.344;7.022;2023-03-01T13:49:27;4.90;99.90
16655;DHT22;8441;51.344;7.022;2023-03-01T13:51:55;4.90;99.90
16655;DHT22;8441;51.344;7.022;2023-03-01T13:54:26;4.90;99.90
16655;DHT22;8441;51.344;7.022;2023-03-01T13:56:55;5.00;99.90
16655;DHT22;8441;51.344;7.022;2023-03-01T13:59:23;5.00;99.90
16655;DHT22;8441;51.344;7.022;2023-03-01T14:01:54;5.00;99.90
16655;DHT22;8441;51.344;7.022;2023-03-01T14:04:23;5.00;99.90
16655;DHT22;8441;51.344;7.022;2023-03-01T14:06:51;5.00;99.90
16655;DHT22;8441;51.344;7.022;2023-03-01T14:09:20;5.10;99.90
16655;DHT22;8441;51.344;7.022;2023-03-01T14:12:12;5.10;99.90
16655;DHT22;8441;51.344;7.022;2023-03-01T14:14:48;5.10;99.90
16655;DHT22;8441;51.344;7.022;2023-03-01T14:17:43;5.10;99.90
16655;DHT22;8441;51.344;7.022;2023-03-01T14:20:16;5.20;99.90
16655;DHT22;8441;51.344;7.022;2023-03-01T14:22:45;5.20;99.90
16655;DHT22;8441;51.344;7.022;2023-03-01T14:25:24;5.10;99.90
16655;DHT22;8441;51.344;7.022;2023-03-01T14:27:57;5.20;99.90
16655;DHT22;8441;51.344;7.022;2023-03-01T14:30:26;5.20;99.90
16655;DHT22;8441;51.344;7.022;2023-03-01T14:32:58;5.30;99.40
16655;DHT22;8441;51.344;7.022;2023-03-01T14:35:28;5.30;99.80
16655;DHT22;8441;51.344;7.022;2023-03-01T14:37:55;5.30;99.60
16655;DHT22;8441;51.344;7.022;2023-03-01T14:40:26;5.30;99.40
16655;DHT22;8441;51.344;7.022;2023-03-01T14:42:55;5.30;99.60
16655;DHT22;8441;51.344;7.022;2023-03-01T14:45:25;5.30;99.40
16655;DHT22;8441;51.344;7.022;2023-03-01T14:47:53;5.30;99.50
16655;DHT22;8441;51.344;7.022;2023-03-01T14:50:25;5.30;99.50
16655;DHT22;8441;51.344;7.022;2023-03-01T14:52:55;5.30;99.50
16655;DHT22;8441;51.344;7.022;2023-03-01T14:55:27;5.30;98.80
16655;DHT22;8441;51.344;7.022;2023-03-01T14:57:56;5.30;99.20
16655;DHT22;8441;51.344;7.022;2023-03-01T15:00:26;5.30;98.10
16655;DHT22;8441;51.344;7.022;2023-03-01T15:02:55;5.20;98.70
16655;DHT22;8441;51.344;7.022;2023-03-01T15:05:27;5.30;98.60
16655;DHT22;8441;51.344;7.022;2023-03-01T15:07:57;5.30;98.90
16655;DHT22;8441;51.344;7.022;2023-03-01T15:10:26;5.30;99.10
16655;DHT22;8441;51.344;7.022;2023-03-01T15:12:53;5.40;98.70
16655;DHT22;8441;51.344;7.022;2023-03-01T15:15:33;5.30;98.60
16655;DHT22;8441;51.344;7.022;2023-03-01T15:18:03;5.40;97.60
16655;DHT22;8441;51.344;7.022;2023-03-01T15:20:34;5.30;97.00
16655;DHT22;8441;51.344;7.022;2023-03-01T15:23:04;5.30;97.00
16655;DHT22;8441;51.344;7.022;2023-03-01T15:25:32;5.30;97.00
16655;DHT22;8441;51.344;7.022;2023-03-01T15:28:01;5.30;97.10
16655;DHT22;8441;51.344;7.022;2023-03-01T15:30:32;5.30;97.20
16655;DHT22;8441;51.344;7.022;2023-03-01T15:33:30;5.20;96.70
16655;DHT22;8441;51.344;7.022;2023-03-01T15:35:59;5.20;96.90
16655;DHT22;8441;51.344;7.022;2023-03-01T15:38:29;5.20;96.90
16655;DHT22;8441;51.344;7.022;2023-03-01T15:40:58;5.20;97.00
16655;DHT22;8441;51.344;7.022;2023-03-01T15:43:43;5.20;96.60
16655;DHT22;8441;51.344;7.022;2023-03-01T15:46:22;5.20;96.90
16655;DHT22;8441;51.344;7.022;2023-03-01T15:48:52;5.20;97.20
16655;DHT22;8441;51.344;7.022;2023-03-01T15:51:28;5.20;97.50
16655;DHT22;8441;51.344;7.022;2023-03-01T15:53:59;5.10;97.60
16655;DHT22;8441;51.344;7.022;2023-03-01T15:56:26;5.10;97.90
16655;DHT22;8441;51.344;7.022;2023-03-01T15:58:57;5.10;97.80
16655;DHT22;8441;51.344;7.022;2023-03-01T16:01:25;5.10;97.60
16655;DHT22;8441;51.344;7.022;2023-03-01T16:03:52;5.10;97.50
16655;DHT22;8441;51.344;7.022;2023-03-01T16:06:20;5.00;97.40
16655;DHT22;8441;51.344;7.022;2023-03-01T16:08:49;5.10;97.40
16655;DHT22;8441;51.344;7.022;2023-03-01T16:11:18;4.90;97.90
16655;DHT22;8441;51.344;7.022;2023-03-01T16:13:45;4.90;97.90
16655;DHT22;8441;51.344;7.022;2023-03-01T16:16:14;4.90;97.90
16655;DHT22;8441;51.344;7.022;2023-03-01T16:18:43;4.90;97.70
16655;DHT22;8441;51.344;7.022;2023-03-01T16:21:15;4.80;98.00